Time;durP1;ratioP1;P1;durP2;ratioP2;P2;SDS_P1;SDS_P2;PMS_P1;PMS_P2;Temp;Humidity;BMP_temperature;BMP_pressure;BME280_temperature;BME280_humidity;BME280_pressure;Samples;Min_cycle;Max_cycle;Signal;HPM_P1;HPM_P2
2021/04/02 00:01:41;;;;;;;0.38;0.20;;;5.30;70.10;;;;;;5095862;28;20081;-73
2021/04/02 00:04:07;;;;;;;0.20;0.20;;;5.40;70.20;;;;;;5095905;28;20520;-73
2021/04/02 00:06:33;;;;;;;0.60;0.30;;;5.30;70.30;;;;;;5114181;28;20040;-73
2021/04/02 00:08:58;;;;;;;0.13;0.13;;;5.30;70.30;;;;;;5078000;28;20068;-73
2021/04/02 00:11:24;;;;;;;0.70;0.20;;;5.20;70.40;;;;;;5113991;28;20038;-73
2021/04/02 00:13:50;;;;;;;2.03;0.70;;;5.20;70.50;;;;;;5114025;28;20044;-73
2021/04/02 00:16:18;;;;;;;0.35;0.30;;;5.20;70.60;;;;;;5114412;28;20396;-73
2021/04/02 00:18:44;;;;;;;1.52;0.40;;;5.10;70.70;;;;;;5114496;28;20035;-73
2021/04/02 00:21:14;;;;;;;0.63;0.30;;;5.00;70.80;;;;;;5095822;28;20035;-74
2021/04/02 00:23:40;;;;;;;0.88;0.30;;;5.10;71.00;;;;;;5113865;28;20493;-74
2021/04/02 00:26:13;;;;;;;0.68;0.20;;;4.90;71.00;;;;;;5113878;28;20040;-73
2021/04/02 00:28:39;;;;;;;0.28;0.20;;;4.90;71.20;;;;;;5114245;28;20389;-73
2021/04/02 00:31:06;;;;;;;0.30;0.30;;;4.80;71.10;;;;;;5095633;28;20036;-73
2021/04/02 00:33:32;;;;;;;0.30;0.20;;;4.90;71.30;;;;;;5113595;28;20123;-73
2021/04/02 00:35:59;;;;;;;0.57;0.40;;;4.80;71.30;;;;;;5095798;28;20040;-73
2021/04/02 00:38:26;;;;;;;0.30;0.30;;;4.80;71.40;;;;;;5113915;28;20067;-73
2021/04/02 00:40:54;;;;;;;0.22;0.20;;;4.80;71.50;;;;;;5094920;28;20469;-73
2021/04/02 00:43:26;;;;;;;1.23;0.30;;;4.70;71.50;;;;;;5114152;28;20065;-73
2021/04/02 00:45:52;;;;;;;0.95;0.45;;;4.70;71.50;;;;;;5113465;28;20032;-73
2021/04/02 00:48:17;;;;;;;0.20;0.20;;;4.70;71.60;;;;;;5113577;28;20122;-74
2021/04/02 00:51:01;;;;;;;1.02;0.40;;;4.70;71.70;;;;;;5093518;28;20048;-73
2021/04/02 00:53:30;;;;;;;0.82;0.32;;;4.60;71.70;;;;;;5095381;28;20044;-73
2021/04/02 00:55:56;;;;;;;0.70;0.40;;;4.60;71.70;;;;;;5113893;28;20044;-73
2021/04/02 00:58:24;;;;;;;0.20;0.15;;;4.60;71.80;;;;;;5095363;28;20047;-73
2021/04/02 01:00:51;;;;;;;1.08;0.30;;;4.50;71.90;;;;;;5113241;28;20039;-73
2021/04/02 01:03:19;;;;;;;1.08;0.60;;;4.50;72.00;;;;;;5113289;28;20163;-73
2021/04/02 01:05:47;;;;;;;1.33;0.35;;;4.50;72.00;;;;;;5113079;28;20497;-73
2021/04/02 01:08:16;;;;;;;0.45;0.30;;;4.50;72.10;;;;;;5113309;28;20042;-73
2021/04/02 01:10:43;;;;;;;0.73;0.30;;;4.50;72.20;;;;;;5113574;28;20047;-73
2021/04/02 01:13:14;;;;;;;1.33;0.32;;;4.50;72.20;;;;;;5113313;28;20039;-73
2021/04/02 01:15:45;;;;;;;1.40;0.43;;;4.40;72.30;;;;;;5113347;28;20046;-73
2021/04/02 01:18:17;;;;;;;0.30;0.30;;;4.40;72.30;;;;;;5112832;28;20043;-73
2021/04/02 01:20:48;;;;;;;0.30;0.30;;;4.30;72.40;;;;;;5113048;28;20494;-74
2021/04/02 01:23:19;;;;;;;0.20;0.20;;;4.40;72.50;;;;;;5112886;28;20118;-73
2021/04/02 01:25:57;;;;;;;1.15;0.43;;;4.30;72.50;;;;;;5113204;28;20069;-74
2021/04/02 01:28:40;;;;;;;0.28;0.25;;;4.20;72.50;;;;;;5096259;28;20055;-73
2021/04/02 01:31:08;;;;;;;0.50;0.40;;;4.30;72.70;;;;;;5112681;28;20043;-73
2021/04/02 01:33:34;;;;;;;0.93;0.40;;;4.20;72.60;;;;;;5113231;28;20054;-74
2021/04/02 01:36:00;;;;;;;0.50;0.30;;;4.20;72.70;;;;;;5113050;28;20040;-73
2021/04/02 01:38:30;;;;;;;0.63;0.40;;;4.20;72.80;;;;;;5113051;28;20531;-73
2021/04/02 01:41:02;;;;;;;0.30;0.30;;;4.10;72.80;;;;;;5112773;28;20122;-73
2021/04/02 01:43:33;;;;;;;;;;;4.20;72.90;;;;;;5112767;28;20042;-73
2021/04/02 01:45:58;;;;;;;0.20;0.20;;;4.10;72.80;;;;;;5112489;28;19960;-73
2021/04/02 01:48:25;;;;;;;0.65;0.30;;;4.10;72.60;;;;;;5112356;28;20039;-73
2021/04/02 01:50:53;;;;;;;0.52;0.22;;;4.10;72.70;;;;;;5112469;28;20558;-74
2021/04/02 01:53:21;;;;;;;0.30;0.30;;;4.10;72.80;;;;;;5112338;28;20039;-73
2021/04/02 01:55:50;;;;;;;0.45;0.45;;;4.10;73.00;;;;;;5112335;28;20500;-74
2021/04/02 01:58:17;;;;;;;1.23;0.20;;;4.10;72.90;;;;;;5112331;28;20039;-73
2021/04/02 02:00:47;;;;;;;0.52;0.38;;;4.10;72.80;;;;;;5112339;28;20040;-73
2021/04/02 02:03:14;;;;;;;0.32;0.20;;;4.10;72.90;;;;;;5095160;28;20538;-74
2021/04/02 02:05:42;;;;;;;0.55;0.25;;;4.10;73.10;;;;;;5093116;28;20398;-73
2021/04/02 02:08:09;;;;;;;0.30;0.20;;;4.10;72.90;;;;;;5112411;28;20040;-73
2021/04/02 02:10:35;;;;;;;0.50;0.40;;;4.10;72.90;;;;;;5094102;28;20048;-73
2021/04/02 02:13:02;;;;;;;0.90;0.65;;;4.10;72.90;;;;;;5112391;28;20044;-73
2021/04/02 02:15:29;;;;;;;0.30;0.30;;;4.10;72.90;;;;;;5112846;28;20161;-74
2021/04/02 02:18:06;;;;;;;0.50;0.20;;;4.10;72.90;;;;;;5112626;28;20094;-73
2021/04/02 02:20:35;;;;;;;0.10;0.10;;;4.20;73.10;;;;;;5094356;28;20127;-73
2021/04/02 02:23:03;;;;;;;0.43;0.22;;;4.20;73.10;;;;;;5112294;28;20039;-73
2021/04/02 02:25:29;;;;;;;0.30;0.20;;;4.20;73.10;;;;;;5094151;28;20101;-74
2021/04/02 02:27:56;;;;;;;0.15;0.15;;;4.10;73.00;;;;;;5112488;28;20039;-73
2021/04/02 02:30:25;;;;;;;0.22;0.20;;;4.20;73.00;;;;;;5112198;28;20474;-73
2021/04/02 02:32:53;;;;;;;0.20;0.20;;;4.10;73.00;;;;;;5112272;28;20405;-73
2021/04/02 02:35:19;;;;;;;1.77;0.32;;;4.20;73.10;;;;;;5112124;28;20035;-73
2021/04/02 02:37:46;;;;;;;0.57;0.57;;;4.20;73.10;;;;;;5112477;28;20050;-73
2021/04/02 02:40:23;;;;;;;0.30;0.20;;;4.20;73.10;;;;;;5111836;28;20040;-74
2021/04/02 02:42:50;;;;;;;2.15;0.40;;;4.20;73.10;;;;;;5112009;28;20043;-74
2021/04/02 02:45:17;;;;;;;0.75;0.30;;;4.10;73.80;;;;;;5111807;28;20040;-74
2021/04/02 02:47:42;;;;;;;0.20;0.20;;;4.10;73.20;;;;;;5093700;28;20454;-73
2021/04/02 02:50:12;;;;;;;1.42;0.38;;;4.10;73.20;;;;;;5094313;28;20078;-73
2021/04/02 02:52:40;;;;;;;0.20;0.17;;;4.10;73.30;;;;;;5111636;28;20068;-73
2021/04/02 02:55:07;;;;;;;1.52;0.30;;;4.10;73.30;;;;;;5111889;28;20584;-73
2021/04/02 02:57:35;;;;;;;0.73;0.32;;;4.10;73.40;;;;;;5094458;28;20059;-73
2021/04/02 03:00:11;;;;;;;0.47;0.30;;;4.10;73.40;;;;;;5112141;28;20492;-73
2021/04/02 03:02:38;;;;;;;0.52;0.30;;;4.10;73.50;;;;;;5112814;28;20039;-73
2021/04/02 03:05:05;;;;;;;1.80;0.40;;;4.10;73.50;;;;;;5096847;28;20101;-74
2021/04/02 03:07:32;;;;;;;1.85;0.30;;;4.10;73.60;;;;;;5115314;28;20050;-73
2021/04/02 03:09:59;;;;;;;0.10;0.10;;;4.10;73.60;;;;;;5114939;28;20055;-74
2021/04/02 03:12:28;;;;;;;1.25;0.40;;;4.10;73.60;;;;;;5115032;28;20440;-73
2021/04/02 03:14:54;;;;;;;0.65;0.20;;;4.10;73.70;;;;;;5095075;28;20127;-73
2021/04/02 03:17:22;;;;;;;0.20;0.20;;;4.10;73.70;;;;;;5097009;28;20119;-73
2021/04/02 03:19:50;;;;;;;0.30;0.30;;;4.10;73.80;;;;;;5114796;28;20374;-73
2021/04/02 03:22:18;;;;;;;1.33;0.30;;;4.10;73.90;;;;;;5096506;28;20404;-73
2021/04/02 03:24:45;;;;;;;0.32;0.28;;;4.10;73.80;;;;;;5114974;28;20043;-73
2021/04/02 03:27:13;;;;;;;0.98;0.30;;;4.10;73.90;;;;;;5115359;28;20046;-73
2021/04/02 03:29:38;;;;;;;0.55;0.20;;;4.10;73.90;;;;;;5115098;28;20039;-73
2021/04/02 03:32:10;;;;;;;0.52;0.30;;;4.10;73.90;;;;;;5114904;28;20397;-73
2021/04/02 03:34:38;;;;;;;0.20;0.20;;;4.00;73.90;;;;;;5114899;28;20092;-73
2021/04/02 03:37:09;;;;;;;0.30;0.20;;;4.10;74.00;;;;;;5114653;28;20036;-73
2021/04/02 03:39:40;;;;;;;0.17;0.17;;;4.10;74.10;;;;;;5096007;28;20047;-73
2021/04/02 03:42:10;;;;;;;0.40;0.30;;;4.10;74.10;;;;;;5114564;28;20039;-74
2021/04/02 03:44:38;;;;;;;0.20;0.20;;;4.10;74.10;;;;;;5114700;28;20122;-73
2021/04/02 03:47:08;;;;;;;0.20;0.20;;;4.10;74.30;;;;;;5114619;28;20078;-73
2021/04/02 03:49:37;;;;;;;0.20;0.20;;;4.10;74.30;;;;;;5114441;28;20039;-73
2021/04/02 03:52:08;;;;;;;0.25;0.20;;;4.10;74.90;;;;;;5114886;28;20365;-73
2021/04/02 03:54:36;;;;;;;0.85;0.43;;;4.10;74.30;;;;;;5114859;28;20040;-74
2021/04/02 03:57:04;;;;;;;0.38;0.10;;;4.10;74.30;;;;;;5114510;28;20374;-73
2021/04/02 03:59:33;;;;;;;0.08;0.08;;;4.00;74.30;;;;;;5096096;28;20430;-74
2021/04/02 04:01:58;;;;;;;1.02;0.40;;;4.10;74.40;;;;;;5094089;28;20105;-73
2021/04/02 04:04:27;;;;;;;0.30;0.20;;;4.10;74.50;;;;;;5114226;28;20043;-73
2021/04/02 04:06:57;;;;;;;1.45;0.20;;;4.10;74.50;;;;;;5114493;28;20041;-73
2021/04/02 04:09:26;;;;;;;1.95;0.60;;;4.10;74.50;;;;;;5114316;28;20471;-74
2021/04/02 04:11:53;;;;;;;0.50;0.40;;;4.20;74.60;;;;;;5095203;28;20055;-74
2021/04/02 04:14:21;;;;;;;1.48;0.30;;;4.20;74.60;;;;;;5113470;28;20039;-74
2021/04/02 04:16:47;;;;;;;0.50;0.40;;;4.10;74.60;;;;;;5114506;28;20126;-73
2021/04/02 04:19:16;;;;;;;1.27;0.47;;;4.20;74.60;;;;;;5114384;28;20036;-74
2021/04/02 04:21:44;;;;;;;0.40;0.40;;;4.20;74.70;;;;;;5114311;28;20044;-73
2021/04/02 04:24:15;;;;;;;1.45;0.40;;;4.20;74.70;;;;;;5114317;28;20508;-74
2021/04/02 04:26:44;;;;;;;1.38;0.20;;;4.20;74.80;;;;;;5114683;28;20052;-73
2021/04/02 04:29:17;;;;;;;0.32;0.20;;;4.20;74.80;;;;;;5113756;28;20040;-74
2021/04/02 04:31:44;;;;;;;1.13;0.40;;;4.20;74.90;;;;;;5113982;28;20040;-73
2021/04/02 04:34:12;;;;;;;0.30;0.20;;;4.20;74.90;;;;;;5113944;28;20097;-73
2021/04/02 04:36:43;;;;;;;0.68;0.30;;;4.20;75.00;;;;;;5113981;28;20122;-73
2021/04/02 04:39:09;;;;;;;0.35;0.30;;;4.10;75.00;;;;;;5113782;28;20040;-74
2021/04/02 04:41:35;;;;;;;0.98;0.50;;;4.20;75.10;;;;;;5114066;28;20516;-73
2021/04/02 04:44:03;;;;;;;0.20;0.20;;;4.10;75.10;;;;;;5113879;28;20091;-74
2021/04/02 04:46:30;;;;;;;1.70;0.20;;;4.20;75.20;;;;;;5113890;28;20049;-73
2021/04/02 04:48:56;;;;;;;0.50;0.40;;;4.10;75.20;;;;;;5095369;28;20402;-74
2021/04/02 04:51:26;;;;;;;0.55;0.30;;;4.10;75.30;;;;;;5114158;28;20036;-74
2021/04/02 04:53:55;;;;;;;0.22;0.22;;;4.10;76.00;;;;;;5113703;28;20498;-73
2021/04/02 04:56:23;;;;;;;1.85;0.20;;;4.10;75.40;;;;;;5113859;28;20481;-73
2021/04/02 04:58:52;;;;;;;1.25;0.35;;;4.10;75.40;;;;;;5093206;28;20082;-74
2021/04/02 05:01:20;;;;;;;0.68;0.38;;;4.10;75.50;;;;;;5113521;28;20046;-74
2021/04/02 05:03:49;;;;;;;1.33;0.50;;;4.10;75.50;;;;;;5095923;28;20122;-74
2021/04/02 05:06:16;;;;;;;0.20;0.20;;;4.10;75.60;;;;;;5113295;28;20048;-74
2021/04/02 05:08:45;;;;;;;0.30;0.20;;;4.10;75.60;;;;;;5113534;28;20044;-74
2021/04/02 05:11:13;;;;;;;0.60;0.28;;;4.10;75.70;;;;;;5095138;28;20039;-74
2021/04/02 05:13:40;;;;;;;0.20;0.20;;;4.10;75.70;;;;;;5113734;28;20541;-74
2021/04/02 05:16:07;;;;;;;1.15;0.40;;;4.10;75.70;;;;;;5095029;28;20051;-73
2021/04/02 05:18:33;;;;;;;0.22;0.20;;;4.00;75.70;;;;;;5112935;28;20096;-74
2021/04/02 05:20:59;;;;;;;0.50;0.20;;;4.10;75.90;;;;;;5095015;28;20119;-73
2021/04/02 05:23:26;;;;;;;0.15;0.15;;;4.00;75.80;;;;;;5113363;28;20035;-74
2021/04/02 05:25:51;;;;;;;0.35;0.20;;;4.10;76.40;;;;;;5113021;28;20096;-74
2021/04/02 05:28:17;;;;;;;1.20;0.25;;;4.10;75.90;;;;;;5094385;28;20122;-73
2021/04/02 05:30:43;;;;;;;0.20;0.20;;;4.00;75.90;;;;;;5113293;28;20493;-73
2021/04/02 05:33:09;;;;;;;1.65;0.50;;;4.10;76.00;;;;;;5113470;28;20043;-73
2021/04/02 05:35:35;;;;;;;0.55;0.20;;;4.00;75.90;;;;;;5078112;28;20043;-74
2021/04/02 05:38:02;;;;;;;0.50;0.25;;;4.00;76.00;;;;;;5112879;28;20035;-73
2021/04/02 05:40:28;;;;;;;0.20;0.20;;;4.00;76.00;;;;;;5078021;28;20044;-74
2021/04/02 05:42:59;;;;;;;0.20;0.20;;;4.00;76.00;;;;;;5112679;28;20043;-74
2021/04/02 05:45:28;;;;;;;3.03;0.50;;;4.10;76.00;;;;;;5113297;28;20036;-74
2021/04/02 05:47:56;;;;;;;0.20;0.20;;;4.10;76.00;;;;;;5113413;28;20105;-74
2021/04/02 05:50:22;;;;;;;0.55;0.30;;;4.10;76.00;;;;;;5113303;28;20043;-74
2021/04/02 05:52:49;;;;;;;0.15;0.15;;;4.10;75.90;;;;;;5094660;28;20166;-74
2021/04/02 05:55:17;;;;;;;0.43;0.22;;;4.10;75.90;;;;;;5113341;28;20066;-74
2021/04/02 05:57:45;;;;;;;0.43;0.28;;;4.10;75.90;;;;;;5112952;28;20039;-74
2021/04/02 06:00:13;;;;;;;1.38;0.30;;;4.10;76.50;;;;;;5112488;28;20047;-74
2021/04/02 06:02:40;;;;;;;0.30;0.20;;;4.30;75.80;;;;;;5112837;28;20048;-74
2021/04/02 06:05:08;;;;;;;0.43;0.25;;;4.40;75.80;;;;;;5112635;28;20047;-74
2021/04/02 06:07:36;;;;;;;0.73;0.32;;;4.30;75.70;;;;;;5112286;28;20070;-74
2021/04/02 06:10:02;;;;;;;0.73;0.20;;;4.30;75.60;;;;;;5113032;28;20477;-74
2021/04/02 06:12:28;;;;;;;1.27;0.30;;;4.40;75.60;;;;;;5094717;28;20035;-75
2021/04/02 06:14:55;;;;;;;0.20;0.20;;;4.40;75.50;;;;;;5113052;28;20042;-74
2021/04/02 06:17:20;;;;;;;0.45;0.20;;;4.40;75.50;;;;;;5093469;28;20169;-74
2021/04/02 06:20:05;;;;;;;1.17;0.25;;;4.60;75.40;;;;;;5112651;28;20537;-73
2021/04/02 06:22:30;;;;;;;0.55;0.30;;;4.50;75.40;;;;;;5113724;28;20043;-73
2021/04/02 06:25:02;;;;;;;0.43;0.32;;;4.60;75.20;;;;;;5112973;28;20044;-74
2021/04/02 06:27:29;;;;;;;0.60;0.22;;;4.60;75.20;;;;;;5112324;28;20096;-75
2021/04/02 06:30:03;;;;;;;0.30;0.20;;;4.70;75.10;;;;;;5094330;28;20507;-74
2021/04/02 06:32:34;;;;;;;0.55;0.38;;;4.80;75.10;;;;;;5094269;28;20066;-74
2021/04/02 06:35:08;;;;;;;0.85;0.30;;;4.90;75.00;;;;;;5094403;28;20123;-73
2021/04/02 06:37:35;;;;;;;0.63;0.30;;;4.90;74.80;;;;;;5095044;28;20040;-72
2021/04/02 06:40:01;;;;;;;1.45;0.20;;;5.00;74.80;;;;;;5115706;28;20044;-73
2021/04/02 06:42:30;;;;;;;2.95;0.50;;;5.00;74.70;;;;;;5115512;28;20043;-75
2021/04/02 06:45:02;;;;;;;0.40;0.30;;;5.10;74.70;;;;;;5097526;28;20139;-74
2021/04/02 06:47:36;;;;;;;0.30;0.20;;;5.10;74.60;;;;;;5115468;28;20036;-74
2021/04/02 06:50:20;;;;;;;2.22;0.30;;;5.20;74.60;;;;;;5097230;28;20402;-75
2021/04/02 06:52:50;;;;;;;0.38;0.20;;;5.20;74.50;;;;;;5097340;28;20039;-74
2021/04/02 06:55:16;;;;;;;1.85;0.30;;;5.30;74.50;;;;;;5111991;28;20039;-75
2021/04/02 06:57:46;;;;;;;0.20;0.20;;;5.40;74.40;;;;;;5115679;28;20035;-74
2021/04/02 07:00:18;;;;;;;0.47;0.30;;;5.40;74.40;;;;;;5115553;28;20046;-74
2021/04/02 07:02:45;;;;;;;0.35;0.15;;;5.40;74.30;;;;;;5115405;28;20043;-74
2021/04/02 07:05:16;;;;;;;0.20;0.20;;;5.50;74.20;;;;;;5115169;28;20047;-74
2021/04/02 07:07:43;;;;;;;0.40;0.30;;;5.60;74.20;;;;;;5115314;28;20047;-74
2021/04/02 07:10:10;;;;;;;0.30;0.30;;;5.70;74.10;;;;;;5114725;28;20048;-74
2021/04/02 07:12:38;;;;;;;0.15;0.15;;;5.70;74.10;;;;;;5097081;28;20393;-74
2021/04/02 07:15:05;;;;;;;0.50;0.30;;;5.80;74.00;;;;;;5115446;28;20502;-74
2021/04/02 07:17:31;;;;;;;1.10;0.40;;;5.90;74.00;;;;;;5115190;28;20047;-74
2021/04/02 07:19:58;;;;;;;0.25;0.25;;;5.90;73.70;;;;;;5115595;28;20052;-74
2021/04/02 07:22:24;;;;;;;0.95;0.30;;;6.00;73.70;;;;;;5096953;28;20071;-75
2021/04/02 07:24:50;;;;;;;0.20;0.20;;;6.10;73.60;;;;;;5114904;28;20093;-74
2021/04/02 07:27:16;;;;;;;0.20;0.20;;;6.10;73.50;;;;;;5115029;28;20508;-74
2021/04/02 07:29:42;;;;;;;0.75;0.40;;;6.20;73.40;;;;;;5115279;28;20056;-74
2021/04/02 07:32:09;;;;;;;1.55;0.38;;;6.40;73.40;;;;;;5115563;28;20073;-74
2021/04/02 07:34:35;;;;;;;0.63;0.43;;;6.50;73.20;;;;;;5096951;28;20482;-77
2021/04/02 07:37:02;;;;;;;1.15;0.28;;;6.60;72.80;;;;;;5096824;28;20431;-78
2021/04/02 07:39:31;;;;;;;0.30;0.30;;;6.70;72.70;;;;;;5114965;28;20092;-76
2021/04/02 07:41:57;;;;;;;2.20;0.35;;;6.80;72.60;;;;;;5114809;28;20093;-76
2021/04/02 07:44:23;;;;;;;0.30;0.30;;;6.90;72.40;;;;;;5096515;28;20447;-77
2021/04/02 07:47:08;;;;;;;0.35;0.30;;;7.10;72.60;;;;;;5114771;28;20035;-76
2021/04/02 07:49:39;;;;;;;1.15;0.47;;;7.20;71.80;;;;;;5113682;28;20491;-76
2021/04/02 07:52:05;;;;;;;0.30;0.25;;;7.30;71.50;;;;;;5114850;28;20068;-74
2021/04/02 07:54:37;;;;;;;1.83;0.40;;;7.60;71.30;;;;;;5097513;28;20046;-76
2021/04/02 07:57:15;;;;;;;1.75;0.40;;;7.70;71.00;;;;;;5114766;28;20535;-76
2021/04/02 07:59:47;;;;;;;2.15;0.50;;;7.80;70.80;;;;;;5096809;28;20051;-75
2021/04/02 08:02:29;;;;;;;0.75;0.30;;;8.10;70.70;;;;;;5079791;28;20051;-76
2021/04/02 08:04:57;;;;;;;0.20;0.20;;;8.30;70.30;;;;;;5114395;28;20043;-74
2021/04/02 08:07:41;;;;;;;0.57;0.22;;;8.50;69.90;;;;;;5114926;28;20047;-74
2021/04/02 08:10:10;;;;;;;0.20;0.20;;;8.70;69.60;;;;;;5114594;28;20481;-75
2021/04/02 08:12:36;;;;;;;0.38;0.20;;;8.80;69.40;;;;;;5114518;28;20040;-77
2021/04/02 08:15:11;;;;;;;1.65;0.50;;;8.90;69.40;;;;;;5095997;28;20036;-74
2021/04/02 08:17:38;;;;;;;0.80;0.30;;;8.80;69.20;;;;;;5114474;28;20420;-75
2021/04/02 08:20:15;;;;;;;0.20;0.20;;;8.80;69.40;;;;;;5114222;28;20047;-76
2021/04/02 08:22:41;;;;;;;2.00;0.40;;;8.70;69.30;;;;;;5114752;28;20048;-74
2021/04/02 08:25:13;;;;;;;0.32;0.30;;;8.50;69.60;;;;;;5114363;28;20126;-77
2021/04/02 08:27:39;;;;;;;0.82;0.30;;;8.50;70.10;;;;;;5096537;28;20040;-75
2021/04/02 08:30:07;;;;;;;1.25;0.40;;;8.30;70.30;;;;;;5095833;28;20047;-76
2021/04/02 08:32:37;;;;;;;0.95;0.40;;;8.30;70.40;;;;;;5114066;28;20039;-78
2021/04/02 08:35:04;;;;;;;0.20;0.20;;;8.20;70.70;;;;;;5114250;28;20031;-76
2021/04/02 08:37:30;;;;;;;0.55;0.30;;;8.30;70.60;;;;;;5114151;28;20039;-76
2021/04/02 08:39:58;;;;;;;0.60;0.30;;;8.40;70.50;;;;;;5096311;28;20054;-78
2021/04/02 08:42:28;;;;;;;0.20;0.20;;;8.50;70.20;;;;;;5114550;28;20118;-78
2021/04/02 08:44:54;;;;;;;0.93;0.30;;;8.60;70.20;;;;;;5095801;28;20039;-77
2021/04/02 08:47:20;;;;;;;1.08;0.40;;;8.60;70.10;;;;;;5115285;28;20516;-78
2021/04/02 08:49:52;;;;;;;1.00;0.40;;;8.70;70.00;;;;;;5113875;28;20104;-78
2021/04/02 08:52:21;;;;;;;0.50;0.40;;;8.80;69.80;;;;;;5095772;28;20040;-78
2021/04/02 08:54:53;;;;;;;0.80;0.40;;;8.90;69.70;;;;;;5114017;28;20036;-78
2021/04/02 08:57:23;;;;;;;1.48;0.35;;;9.10;69.50;;;;;;5117884;28;20031;-79
2021/04/02 08:59:49;;;;;;;0.80;0.30;;;9.20;69.00;;;;;;5117240;28;20122;-78
2021/04/02 09:02:16;;;;;;;1.67;0.30;;;9.20;68.90;;;;;;5113624;28;20078;-77
2021/04/02 09:04:43;;;;;;;1.10;0.40;;;9.30;68.90;;;;;;5113552;28;20488;-76
2021/04/02 09:07:11;;;;;;;1.58;0.40;;;9.20;69.10;;;;;;5114629;28;20047;-76
2021/04/02 09:09:40;;;;;;;0.80;0.43;;;9.10;69.10;;;;;;5115489;28;20117;-78
2021/04/02 09:12:10;;;;;;;0.73;0.50;;;8.90;69.30;;;;;;5117785;28;20071;-80
2021/04/02 09:14:44;;;;;;;1.13;0.50;;;8.70;69.50;;;;;;5033766;28;20037;-80
2021/04/02 09:17:13;;;;;;;1.25;0.40;;;8.70;69.80;;;;;;5051363;28;20048;-77
2021/04/02 09:19:39;;;;;;;0.57;0.30;;;8.70;69.70;;;;;;5034281;28;20048;-78
2021/04/02 09:22:06;;;;;;;0.30;0.30;;;8.70;69.60;;;;;;5051147;28;20128;-76
2021/04/02 09:24:35;;;;;;;0.85;0.57;;;8.80;69.60;;;;;;5034531;28;20103;-77
2021/04/02 09:27:14;;;;;;;1.38;0.40;;;8.60;69.30;;;;;;5017881;28;20052;-79
2021/04/02 09:29:44;;;;;;;2.83;0.50;;;8.60;69.70;;;;;;5051384;28;20045;-77
2021/04/02 09:32:14;;;;;;;0.80;0.50;;;8.50;69.60;;;;;;5019638;28;20045;-80
2021/04/02 09:34:40;;;;;;;3.05;0.50;;;8.40;70.00;;;;;;5003538;28;20056;-78
2021/04/02 09:37:12;;;;;;;0.75;0.40;;;8.30;70.00;;;;;;5035267;28;20085;-79
2021/04/02 09:39:40;;;;;;;0.85;0.40;;;8.30;70.00;;;;;;5017778;28;20419;-77
2021/04/02 09:42:13;;;;;;;0.35;0.32;;;8.40;69.80;;;;;;5033688;28;20449;-76
2021/04/02 09:44:39;;;;;;;1.70;0.65;;;8.20;69.70;;;;;;5053513;28;20088;-77
2021/04/02 09:47:08;;;;;;;1.02;0.60;;;8.20;69.90;;;;;;5093925;28;20486;-77
2021/04/02 09:49:35;;;;;;;0.50;0.28;;;8.30;70.00;;;;;;5095495;28;20044;-74
2021/04/02 09:52:02;;;;;;;1.20;0.57;;;8.30;70.00;;;;;;5113358;28;20034;-74
2021/04/02 09:54:30;;;;;;;3.42;0.50;;;8.40;69.60;;;;;;5112969;28;20044;-74
2021/04/02 09:56:59;;;;;;;0.77;0.50;;;8.50;69.20;;;;;;5112821;28;20508;-74
2021/04/02 09:59:25;;;;;;;0.77;0.40;;;8.60;69.00;;;;;;5112778;28;20070;-74
2021/04/02 10:01:51;;;;;;;0.73;0.55;;;8.60;68.90;;;;;;5076055;28;20090;-73
2021/04/02 10:04:17;;;;;;;1.38;0.70;;;8.50;68.80;;;;;;5112423;28;20047;-74
2021/04/02 10:06:44;;;;;;;1.63;0.70;;;8.50;68.80;;;;;;5112523;28;21141;-74
2021/04/02 10:09:11;;;;;;;1.48;0.70;;;8.50;68.90;;;;;;5112429;28;20561;-73
2021/04/02 10:11:42;;;;;;;1.95;0.85;;;8.40;68.90;;;;;;5077500;28;20169;-73
2021/04/02 10:14:08;;;;;;;1.45;0.50;;;8.40;69.00;;;;;;5094314;28;20032;-74
2021/04/02 10:16:34;;;;;;;2.50;0.60;;;8.60;69.00;;;;;;5094771;28;20044;-74
2021/04/02 10:19:02;;;;;;;1.27;0.52;;;8.70;68.70;;;;;;5112665;28;20489;-77
2021/04/02 10:21:47;;;;;;;1.98;0.70;;;8.70;68.40;;;;;;5112649;28;20108;-79
2021/04/02 10:24:13;;;;;;;1.23;0.50;;;8.80;68.10;;;;;;5079044;28;20043;-77
2021/04/02 10:26:39;;;;;;;3.15;0.82;;;8.80;67.90;;;;;;5080831;28;20489;-79
2021/04/02 10:29:10;;;;;;;1.27;0.70;;;8.90;67.70;;;;;;5066921;28;20401;-81
2021/04/02 10:31:36;;;;;;;0.40;0.40;;;9.00;67.60;;;;;;5098157;28;20104;-78
2021/04/02 10:34:02;;;;;;;0.65;0.30;;;9.40;67.40;;;;;;5112628;28;20389;-78
2021/04/02 10:36:28;;;;;;;2.92;0.45;;;9.60;66.70;;;;;;5106531;28;20027;-79
2021/04/02 10:38:55;;;;;;;0.77;0.40;;;9.80;66.30;;;;;;5135517;28;20044;-78
2021/04/02 10:41:20;;;;;;;0.60;0.40;;;9.90;66.20;;;;;;5120523;28;20032;-77
2021/04/02 10:43:46;;;;;;;0.43;0.40;;;10.00;66.00;;;;;;5097963;28;20043;-75
2021/04/02 10:46:22;;;;;;;0.95;0.50;;;9.90;65.70;;;;;;5094444;28;20039;-78
2021/04/02 10:48:48;;;;;;;0.52;0.40;;;9.80;66.00;;;;;;5094324;28;20055;-76
2021/04/02 10:51:13;;;;;;;0.25;0.20;;;9.90;66.10;;;;;;5115278;28;20043;-75
2021/04/02 10:53:39;;;;;;;0.40;0.40;;;10.10;65.80;;;;;;5112324;28;20059;-74
2021/04/02 10:56:05;;;;;;;0.68;0.43;;;10.10;65.60;;;;;;5113275;28;20357;-75
2021/04/02 10:58:32;;;;;;;2.08;0.70;;;10.10;65.70;;;;;;5077157;28;20493;-76
2021/04/02 11:00:58;;;;;;;1.35;0.50;;;10.20;65.60;;;;;;5095639;28;20039;-74
2021/04/02 11:03:24;;;;;;;0.95;0.50;;;10.40;65.30;;;;;;5116040;28;20047;-75
2021/04/02 11:05:50;;;;;;;0.90;0.40;;;10.40;65.10;;;;;;5114006;28;20051;-74
2021/04/02 11:08:16;;;;;;;0.90;0.50;;;10.50;65.20;;;;;;5081525;28;20039;-72
2021/04/02 11:10:42;;;;;;;2.05;0.40;;;10.40;65.10;;;;;;5113397;28;20046;-73
2021/04/02 11:13:08;;;;;;;1.33;0.47;;;10.30;65.10;;;;;;5111911;28;20035;-73
2021/04/02 11:15:34;;;;;;;1.05;0.50;;;10.10;65.50;;;;;;5112050;28;20047;-77
2021/04/02 11:18:02;;;;;;;0.75;0.45;;;10.20;66.00;;;;;;5111836;28;20028;-78
2021/04/02 11:20:29;;;;;;;1.60;0.60;;;10.50;65.50;;;;;;5094130;28;20032;-77
2021/04/02 11:22:57;;;;;;;0.70;0.30;;;10.70;64.70;;;;;;5093796;28;20043;-75
2021/04/02 11:25:23;;;;;;;0.38;0.38;;;10.70;64.40;;;;;;5094893;28;20051;-75
2021/04/02 11:27:49;;;;;;;0.60;0.40;;;10.60;64.40;;;;;;5115517;28;20130;-76
2021/04/02 11:30:16;;;;;;;1.10;0.40;;;10.60;64.60;;;;;;5115493;28;20123;-74
2021/04/02 11:32:42;;;;;;;0.80;0.45;;;10.60;64.60;;;;;;5097455;28;20044;-77
2021/04/02 11:35:11;;;;;;;0.52;0.30;;;10.70;64.70;;;;;;5115195;28;20493;-77
2021/04/02 11:37:37;;;;;;;1.02;0.50;;;10.80;64.50;;;;;;5095886;28;20089;-74
2021/04/02 11:40:06;;;;;;;0.85;0.50;;;10.80;64.20;;;;;;5114820;28;20489;-75
2021/04/02 11:42:32;;;;;;;0.73;0.52;;;11.00;64.20;;;;;;5096383;28;20063;-73
2021/04/02 11:44:58;;;;;;;1.15;0.55;;;11.00;63.80;;;;;;5114760;28;20046;-75
2021/04/02 11:47:24;;;;;;;1.13;0.50;;;11.00;63.90;;;;;;5117219;28;20035;-75
2021/04/02 11:49:50;;;;;;;0.55;0.40;;;10.80;64.10;;;;;;5114517;28;20063;-75
2021/04/02 11:52:16;;;;;;;0.22;0.22;;;10.90;64.20;;;;;;5114933;28;20040;-75
2021/04/02 11:54:41;;;;;;;0.80;0.50;;;11.10;64.00;;;;;;5096489;28;20028;-76
2021/04/02 11:57:07;;;;;;;0.93;0.40;;;11.10;63.70;;;;;;5096260;28;20405;-76
2021/04/02 11:59:33;;;;;;;2.65;0.60;;;11.30;63.40;;;;;;5114378;28;20042;-76
2021/04/02 12:01:59;;;;;;;1.23;0.50;;;11.20;63.20;;;;;;5096152;28;20047;-74
2021/04/02 12:04:25;;;;;;;1.45;0.50;;;11.10;63.20;;;;;;5114473;28;20040;-77
2021/04/02 12:06:50;;;;;;;0.82;0.50;;;11.10;63.40;;;;;;5096047;28;20039;-75
2021/04/02 12:09:16;;;;;;;0.77;0.40;;;11.20;63.40;;;;;;5114299;28;20481;-75
2021/04/02 12:11:42;;;;;;;0.38;0.35;;;11.20;63.10;;;;;;5114094;28;20047;-77
2021/04/02 12:14:08;;;;;;;1.80;0.63;;;11.40;63.20;;;;;;5114245;28;20084;-76
2021/04/02 12:16:34;;;;;;;2.13;0.55;;;11.50;62.60;;;;;;5077643;28;20036;-74
2021/04/02 12:19:01;;;;;;;0.55;0.32;;;11.40;62.70;;;;;;5114503;28;20039;-75
2021/04/02 12:21:27;;;;;;;0.50;0.50;;;11.20;62.80;;;;;;5116427;28;20093;-77
2021/04/02 12:23:53;;;;;;;1.48;0.65;;;11.20;63.30;;;;;;5096448;28;20466;-75
2021/04/02 12:26:19;;;;;;;0.95;0.50;;;11.20;63.30;;;;;;5114557;28;20043;-75
2021/04/02 12:28:45;;;;;;;1.45;0.47;;;11.10;63.20;;;;;;5096230;28;20083;-75
2021/04/02 12:31:10;;;;;;;2.20;0.50;;;11.20;63.20;;;;;;5114392;28;20120;-75
2021/04/02 12:33:36;;;;;;;2.25;0.50;;;11.10;63.10;;;;;;5114417;28;20028;-75
2021/04/02 12:36:03;;;;;;;2.08;0.73;;;11.10;63.20;;;;;;5113551;28;20036;-74
2021/04/02 12:38:32;;;;;;;1.40;0.60;;;11.30;62.90;;;;;;5114230;28;20628;-75
2021/04/02 12:40:58;;;;;;;1.33;0.68;;;11.20;62.70;;;;;;5113834;28;20123;-74
2021/04/02 12:43:23;;;;;;;0.77;0.50;;;11.10;63.00;;;;;;5113579;28;20185;-74
2021/04/02 12:45:49;;;;;;;1.05;0.40;;;11.00;63.20;;;;;;5096202;28;20108;-74
2021/04/02 12:48:15;;;;;;;1.00;0.50;;;11.10;63.20;;;;;;5096430;28;20104;-76
2021/04/02 12:50:41;;;;;;;2.17;0.60;;;11.10;63.10;;;;;;5113982;28;20138;-75
2021/04/02 12:53:06;;;;;;;1.50;0.40;;;11.20;63.20;;;;;;5115739;28;20044;-77
2021/04/02 12:55:33;;;;;;;1.17;0.50;;;11.10;63.20;;;;;;5115688;28;20088;-75
2021/04/02 12:57:59;;;;;;;1.58;0.35;;;11.10;63.10;;;;;;5095212;28;20044;-74
2021/04/02 13:00:27;;;;;;;1.05;0.40;;;11.10;63.00;;;;;;5113812;28;20044;-73